sensor_id;sensor_type;location;lat;lon;timestamp;pressure;altitude;pressure_sealevel;temperature;humidity
16481;BME280;44634;54.110;12.138;2023-04-15T00:01:43;100370.22;;;10.41;100.00
16481;BME280;44634;54.110;12.138;2023-04-15T00:04:10;100371.63;;;11.18;100.00
16481;BME280;44634;54.110;12.138;2023-04-15T00:06:38;100330.97;;;11.01;100.00
16481;BME280;44634;54.110;12.138;2023-04-15T00:09:07;100312.03;;;11.14;100.00
16481;BME280;44634;54.110;12.138;2023-04-15T00:11:36;100292.34;;;11.52;100.00
16481;BME280;44634;54.110;12.138;2023-04-15T00:14:03;100285.47;;;11.41;100.00
16481;BME280;44634;54.110;12.138;2023-04-15T00:16:32;100284.81;;;11.39;100.00
16481;BME280;44634;54.110;12.138;2023-04-15T00:19:00;100293.53;;;10.78;100.00
16481;BME280;44634;54.110;12.138;2023-04-15T00:21:28;100301.44;;;11.14;100.00
16481;BME280;44634;54.110;12.138;2023-04-15T00:23:56;100294.09;;;10.99;100.00
16481;BME280;44634;54.110;12.138;2023-04-15T00:26:24;100294.88;;;10.82;100.00
16481;BME280;44634;54.110;12.138;2023-04-15T00:28:53;100293.97;;;11.09;100.00
16481;BME280;44634;54.110;12.138;2023-04-15T00:31:21;100303.63;;;10.83;100.00
16481;BME280;44634;54.110;12.138;2023-04-15T00:33:49;100298.44;;;11.26;100.00
16481;BME280;44634;54.110;12.138;2023-04-15T00:36:17;100286.28;;;11.16;100.00
16481;BME280;44634;54.110;12.138;2023-04-15T00:38:44;100298.34;;;10.83;100.00
16481;BME280;44634;54.110;12.138;2023-04-15T00:41:12;100313.63;;;10.71;100.00
16481;BME280;44634;54.110;12.138;2023-04-15T00:43:41;100298.44;;;11.09;100.00
16481;BME280;44634;54.110;12.138;2023-04-15T00:46:11;100313.13;;;10.58;100.00
16481;BME280;44634;54.110;12.138;2023-04-15T00:48:39;100303.94;;;10.97;100.00
16481;BME280;44634;54.110;12.138;2023-04-15T00:51:07;100291.50;;;11.08;100.00
16481;BME280;44634;54.110;12.138;2023-04-15T00:53:36;100278.34;;;11.16;100.00
16481;BME280;44634;54.110;12.138;2023-04-15T00:56:04;100292.19;;;10.47;100.00
16481;BME280;44634;54.110;12.138;2023-04-15T00:58:32;100316.66;;;10.49;100.00
16481;BME280;44634;54.110;12.138;2023-04-15T01:01:00;100330.22;;;10.63;100.00
16481;BME280;44634;54.110;12.138;2023-04-15T01:03:29;100308.13;;;11.18;100.00
16481;BME280;44634;54.110;12.138;2023-04-15T01:05:59;100291.84;;;10.77;100.00
16481;BME280;44634;54.110;12.138;2023-04-15T01:08:30;100273.56;;;11.19;100.00
16481;BME280;44634;54.110;12.138;2023-04-15T01:11:00;100263.13;;;10.82;100.00
16481;BME280;44634;54.110;12.138;2023-04-15T01:13:29;100282.91;;;10.42;100.00
16481;BME280;44634;54.110;12.138;2023-04-15T01:15:57;100300.59;;;10.60;100.00
16481;BME280;44634;54.110;12.138;2023-04-15T01:18:25;100280.06;;;11.07;100.00
16481;BME280;44634;54.110;12.138;2023-04-15T01:20:55;100281.13;;;10.61;100.00
16481;BME280;44634;54.110;12.138;2023-04-15T01:23:23;100302.72;;;10.56;100.00
16481;BME280;44634;54.110;12.138;2023-04-15T01:25:53;100285.59;;;10.96;100.00
16481;BME280;44634;54.110;12.138;2023-04-15T01:28:22;100265.56;;;10.76;100.00
16481;BME280;44634;54.110;12.138;2023-04-15T01:30:49;100269.13;;;11.02;100.00
16481;BME280;44634;54.110;12.138;2023-04-15T01:33:17;100261.09;;;10.76;100.00
16481;BME280;44634;54.110;12.138;2023-04-15T01:35:45;100268.00;;;11.05;100.00
16481;BME280;44634;54.110;12.138;2023-04-15T01:38:13;100256.50;;;10.78;100.00
16481;BME280;44634;54.110;12.138;2023-04-15T01:40:41;100275.31;;;10.93;100.00
16481;BME280;44634;54.110;12.138;2023-04-15T01:43:10;100259.75;;;10.90;100.00
16481;BME280;44634;54.110;12.138;2023-04-15T01:45:38;100267.09;;;10.33;100.00
16481;BME280;44634;54.110;12.138;2023-04-15T01:48:06;100283.09;;;10.77;100.00
16481;BME280;44634;54.110;12.138;2023-04-15T01:50:35;100276.41;;;10.55;100.00
16481;BME280;44634;54.110;12.138;2023-04-15T01:53:03;100281.56;;;10.56;100.00
16481;BME280;44634;54.110;12.138;2023-04-15T01:55:31;100272.72;;;10.83;100.00
16481;BME280;44634;54.110;12.138;2023-04-15T01:57:59;100287.34;;;10.42;100.00
16481;BME280;44634;54.110;12.138;2023-04-15T02:00:28;100277.75;;;10.86;100.00
16481;BME280;44634;54.110;12.138;2023-04-15T02:02:58;100271.69;;;11.12;100.00
16481;BME280;44634;54.110;12.138;2023-04-15T02:05:25;100260.50;;;10.82;100.00
16481;BME280;44634;54.110;12.138;2023-04-15T02:07:53;100265.72;;;11.10;100.00
16481;BME280;44634;54.110;12.138;2023-04-15T02:10:21;100244.31;;;11.21;100.00
16481;BME280;44634;54.110;12.138;2023-04-15T02:12:49;100252.88;;;10.79;100.00
16481;BME280;44634;54.110;12.138;2023-04-15T02:15:17;100261.56;;;11.07;100.00
16481;BME280;44634;54.110;12.138;2023-04-15T02:17:46;100255.25;;;10.55;100.00
16481;BME280;44634;54.110;12.138;2023-04-15T02:20:17;100268.88;;;10.60;100.00
16481;BME280;44634;54.110;12.138;2023-04-15T02:22:46;100262.53;;;11.06;100.00
16481;BME280;44634;54.110;12.138;2023-04-15T02:25:14;100262.34;;;10.99;100.00
16481;BME280;44634;54.110;12.138;2023-04-15T02:27:43;100268.44;;;10.82;100.00
16481;BME280;44634;54.110;12.138;2023-04-15T02:30:11;100285.13;;;10.65;100.00
16481;BME280;44634;54.110;12.138;2023-04-15T02:32:39;100262.91;;;11.11;100.00
16481;BME280;44634;54.110;12.138;2023-04-15T02:35:10;100249.59;;;11.21;100.00
16481;BME280;44634;54.110;12.138;2023-04-15T02:37:38;100238.47;;;11.61;100.00
16481;BME280;44634;54.110;12.138;2023-04-15T02:40:10;100236.97;;;11.32;100.00
16481;BME280;44634;54.110;12.138;2023-04-15T02:42:38;100232.34;;;11.60;100.00
16481;BME280;44634;54.110;12.138;2023-04-15T02:45:07;100226.72;;;11.38;100.00
16481;BME280;44634;54.110;12.138;2023-04-15T02:47:35;100233.50;;;11.32;100.00
16481;BME280;44634;54.110;12.138;2023-04-15T02:50:03;100235.59;;;11.54;100.00
16481;BME280;44634;54.110;12.138;2023-04-15T02:52:32;100228.56;;;11.63;100.00
16481;BME280;44634;54.110;12.138;2023-04-15T02:55:00;100222.16;;;11.22;100.00
16481;BME280;44634;54.110;12.138;2023-04-15T02:57:29;100228.03;;;11.33;100.00
16481;BME280;44634;54.110;12.138;2023-04-15T02:59:57;100234.66;;;11.38;100.00
16481;BME280;44634;54.110;12.138;2023-04-15T03:02:25;100226.91;;;11.62;100.00
16481;BME280;44634;54.110;12.138;2023-04-15T03:04:53;100231.22;;;11.71;100.00
16481;BME280;44634;54.110;12.138;2023-04-15T03:07:21;100231.72;;;11.41;100.00
16481;BME280;44634;54.110;12.138;2023-04-15T03:09:50;100236.16;;;11.40;100.00
16481;BME280;44634;54.110;12.138;2023-04-15T03:12:18;100230.50;;;11.79;100.00
16481;BME280;44634;54.110;12.138;2023-04-15T03:14:45;100219.66;;;11.98;100.00
16481;BME280;44634;54.110;12.138;2023-04-15T03:17:13;100223.75;;;11.41;100.00
16481;BME280;44634;54.110;12.138;2023-04-15T03:19:42;100217.63;;;11.58;100.00
16481;BME280;44634;54.110;12.138;2023-04-15T03:22:10;100220.25;;;11.58;100.00
16481;BME280;44634;54.110;12.138;2023-04-15T03:24:38;100227.69;;;11.28;100.00
16481;BME280;44634;54.110;12.138;2023-04-15T03:27:07;100228.34;;;11.56;100.00
16481;BME280;44634;54.110;12.138;2023-04-15T03:29:35;100223.50;;;12.04;100.00
16481;BME280;44634;54.110;12.138;2023-04-15T03:32:03;100227.47;;;11.48;100.00
16481;BME280;44634;54.110;12.138;2023-04-15T03:34:31;100229.44;;;11.02;100.00
16481;BME280;44634;54.110;12.138;2023-04-15T03:36:58;100219.94;;;11.87;100.00
16481;BME280;44634;54.110;12.138;2023-04-15T03:39:26;100237.34;;;11.20;100.00
16481;BME280;44634;54.110;12.138;2023-04-15T03:41:54;100241.81;;;11.19;100.00
16481;BME280;44634;54.110;12.138;2023-04-15T03:44:23;100257.94;;;11.08;100.00
16481;BME280;44634;54.110;12.138;2023-04-15T03:46:51;100262.41;;;11.51;100.00
16481;BME280;44634;54.110;12.138;2023-04-15T03:49:19;100257.56;;;11.03;100.00
16481;BME280;44634;54.110;12.138;2023-04-15T03:51:48;100245.88;;;11.31;100.00
16481;BME280;44634;54.110;12.138;2023-04-15T03:54:16;100254.19;;;11.37;100.00
16481;BME280;44634;54.110;12.138;2023-04-15T03:56:43;100258.19;;;11.67;100.00
16481;BME280;44634;54.110;12.138;2023-04-15T03:59:11;100239.16;;;11.63;100.00
16481;BME280;44634;54.110;12.138;2023-04-15T04:01:40;100241.97;;;11.61;100.00
16481;BME280;44634;54.110;12.138;2023-04-15T04:04:08;100255.91;;;11.02;100.00
16481;BME280;44634;54.110;12.138;2023-04-15T04:06:36;100255.59;;;11.49;100.00
16481;BME280;44634;54.110;12.138;2023-04-15T04:09:04;100253.50;;;11.35;100.00
16481;BME280;44634;54.110;12.138;2023-04-15T04:11:31;100256.69;;;11.38;100.00
16481;BME280;44634;54.110;12.138;2023-04-15T04:13:59;100248.38;;;11.85;100.00
16481;BME280;44634;54.110;12.138;2023-04-15T04:16:27;100236.53;;;11.71;100.00
16481;BME280;44634;54.110;12.138;2023-04-15T04:18:56;100242.63;;;11.89;100.00
16481;BME280;44634;54.110;12.138;2023-04-15T04:21:24;100255.22;;;11.18;100.00
16481;BME280;44634;54.110;12.138;2023-04-15T04:23:53;100266.09;;;11.15;100.00
16481;BME280;44634;54.110;12.138;2023-04-15T04:26:22;100276.28;;;11.10;100.00
16481;BME280;44634;54.110;12.138;2023-04-15T04:28:49;100281.75;;;11.08;100.00
16481;BME280;44634;54.110;12.138;2023-04-15T04:31:17;100296.63;;;11.09;100.00
16481;BME280;44634;54.110;12.138;2023-04-15T04:33:45;100279.78;;;11.10;100.00
16481;BME280;44634;54.110;12.138;2023-04-15T04:36:14;100291.03;;;11.12;100.00
16481;BME280;44634;54.110;12.138;2023-04-15T04:38:42;100297.47;;;11.10;100.00
16481;BME280;44634;54.110;12.138;2023-04-15T04:41:10;100304.66;;;10.99;100.00
16481;BME280;44634;54.110;12.138;2023-04-15T04:43:37;100328.53;;;11.08;100.00
16481;BME280;44634;54.110;12.138;2023-04-15T04:46:05;100347.81;;;11.18;100.00
16481;BME280;44634;54.110;12.138;2023-04-15T04:48:33;100359.78;;;10.77;100.00
16481;BME280;44634;54.110;12.138;2023-04-15T04:51:01;100331.84;;;11.27;100.00
16481;BME280;44634;54.110;12.138;2023-04-15T04:53:30;100316.06;;;11.00;100.00
16481;BME280;44634;54.110;12.138;2023-04-15T04:55:58;100316.75;;;11.20;100.00
16481;BME280;44634;54.110;12.138;2023-04-15T04:58:26;100325.88;;;11.25;100.00
16481;BME280;44634;54.110;12.138;2023-04-15T05:00:54;100319.75;;;11.07;100.00
16481;BME280;44634;54.110;12.138;2023-04-15T05:03:22;100321.56;;;11.07;100.00
16481;BME280;44634;54.110;12.138;2023-04-15T05:05:50;100318.31;;;11.13;100.00
16481;BME280;44634;54.110;12.138;2023-04-15T05:08:17;100305.25;;;10.93;100.00
16481;BME280;44634;54.110;12.138;2023-04-15T05:10:47;100298.47;;;11.52;100.00
16481;BME280;44634;54.110;12.138;2023-04-15T05:13:15;100302.22;;;11.06;100.00
16481;BME280;44634;54.110;12.138;2023-04-15T05:15:42;100297.91;;;11.67;100.00
16481;BME280;44634;54.110;12.138;2023-04-15T05:18:10;100279.91;;;11.70;100.00
16481;BME280;44634;54.110;12.138;2023-04-15T05:20:38;100300.75;;;11.47;100.00
16481;BME280;44634;54.110;12.138;2023-04-15T05:23:06;100309.50;;;11.04;100.00
16481;BME280;44634;54.110;12.138;2023-04-15T05:25:34;100312.56;;;11.35;100.00
16481;BME280;44634;54.110;12.138;2023-04-15T05:28:04;100313.53;;;11.52;100.00
16481;BME280;44634;54.110;12.138;2023-04-15T05:30:32;100296.81;;;11.51;100.00
16481;BME280;44634;54.110;12.138;2023-04-15T05:32:59;100297.59;;;11.87;100.00
16481;BME280;44634;54.110;12.138;2023-04-15T05:35:27;100285.66;;;12.17;100.00
16481;BME280;44634;54.110;12.138;2023-04-15T05:37:55;100281.16;;;12.10;100.00
16481;BME280;44634;54.110;12.138;2023-04-15T05:40:23;100281.44;;;12.33;100.00
16481;BME280;44634;54.110;12.138;2023-04-15T05:42:51;100287.84;;;11.88;100.00
16481;BME280;44634;54.110;12.138;2023-04-15T05:45:20;100293.19;;;11.78;100.00
16481;BME280;44634;54.110;12.138;2023-04-15T05:47:48;100297.44;;;11.89;100.00
16481;BME280;44634;54.110;12.138;2023-04-15T05:50:20;100291.00;;;11.91;100.00
16481;BME280;44634;54.110;12.138;2023-04-15T05:52:48;100303.84;;;12.12;100.00
16481;BME280;44634;54.110;12.138;2023-04-15T05:55:16;100315.69;;;11.30;100.00
16481;BME280;44634;54.110;12.138;2023-04-15T05:57:43;100311.84;;;12.20;100.00
16481;BME280;44634;54.110;12.138;2023-04-15T06:00:13;100310.94;;;12.38;100.00
16481;BME280;44634;54.110;12.138;2023-04-15T06:02:42;100298.81;;;12.35;100.00
16481;BME280;44634;54.110;12.138;2023-04-15T06:05:10;100296.28;;;12.60;100.00
16481;BME280;44634;54.110;12.138;2023-04-15T06:07:38;100313.19;;;11.90;100.00
16481;BME280;44634;54.110;12.138;2023-04-15T06:10:07;100312.19;;;12.26;100.00
16481;BME280;44634;54.110;12.138;2023-04-15T06:12:35;100311.94;;;12.37;100.00
16481;BME280;44634;54.110;12.138;2023-04-15T06:15:03;100312.66;;;12.55;100.00
16481;BME280;44634;54.110;12.138;2023-04-15T06:17:32;100311.41;;;12.84;100.00
16481;BME280;44634;54.110;12.138;2023-04-15T06:20:01;100319.88;;;12.37;100.00
16481;BME280;44634;54.110;12.138;2023-04-15T06:22:28;100309.44;;;12.94;100.00
16481;BME280;44634;54.110;12.138;2023-04-15T06:24:56;100312.94;;;12.94;100.00
16481;BME280;44634;54.110;12.138;2023-04-15T06:27:24;100327.66;;;12.80;100.00
16481;BME280;44634;54.110;12.138;2023-04-15T06:29:52;100316.84;;;13.32;100.00
16481;BME280;44634;54.110;12.138;2023-04-15T06:32:19;100331.75;;;13.42;100.00
16481;BME280;44634;54.110;12.138;2023-04-15T06:34:47;100319.78;;;13.70;100.00
16481;BME280;44634;54.110;12.138;2023-04-15T06:37:16;100321.94;;;13.58;100.00
16481;BME280;44634;54.110;12.138;2023-04-15T06:39:44;100330.78;;;13.51;100.00
16481;BME280;44634;54.110;12.138;2023-04-15T06:42:12;100340.06;;;13.47;100.00
16481;BME280;44634;54.110;12.138;2023-04-15T06:44:40;100333.53;;;13.98;100.00
16481;BME280;44634;54.110;12.138;2023-04-15T06:47:08;100357.78;;;13.30;100.00
16481;BME280;44634;54.110;12.138;2023-04-15T06:49:38;100335.38;;;13.73;100.00
16481;BME280;44634;54.110;12.138;2023-04-15T06:52:06;100342.03;;;13.69;100.00
16481;BME280;44634;54.110;12.138;2023-04-15T06:54:35;100341.81;;;14.03;100.00
16481;BME280;44634;54.110;12.138;2023-04-15T06:57:03;100369.72;;;14.23;100.00
16481;BME280;44634;54.110;12.138;2023-04-15T06:59:31;100373.91;;;14.02;100.00
16481;BME280;44634;54.110;12.138;2023-04-15T07:01:58;100369.66;;;14.40;100.00
16481;BME280;44634;54.110;12.138;2023-04-15T07:04:26;100395.59;;;14.38;100.00
16481;BME280;44634;54.110;12.138;2023-04-15T07:06:54;100395.47;;;14.15;100.00
16481;BME280;44634;54.110;12.138;2023-04-15T07:09:23;100413.63;;;15.14;100.00
16481;BME280;44634;54.110;12.138;2023-04-15T07:11:52;100426.66;;;15.01;100.00
16481;BME280;44634;54.110;12.138;2023-04-15T07:14:20;100456.72;;;14.78;100.00
16481;BME280;44634;54.110;12.138;2023-04-15T07:16:48;100458.44;;;14.39;100.00
16481;BME280;44634;54.110;12.138;2023-04-15T07:19:16;100455.16;;;14.92;100.00
16481;BME280;44634;54.110;12.138;2023-04-15T07:21:43;100459.78;;;14.98;100.00
16481;BME280;44634;54.110;12.138;2023-04-15T07:24:11;100491.44;;;14.85;100.00
16481;BME280;44634;54.110;12.138;2023-04-15T07:26:42;100493.63;;;14.81;100.00
16481;BME280;44634;54.110;12.138;2023-04-15T07:29:11;100499.13;;;14.80;100.00
16481;BME280;44634;54.110;12.138;2023-04-15T07:31:39;100532.72;;;14.81;100.00
16481;BME280;44634;54.110;12.138;2023-04-15T07:34:07;100534.44;;;15.21;100.00
16481;BME280;44634;54.110;12.138;2023-04-15T07:36:35;100569.41;;;15.96;100.00
16481;BME280;44634;54.110;12.138;2023-04-15T07:39:03;100589.56;;;15.68;100.00
16481;BME280;44634;54.110;12.138;2023-04-15T07:41:31;100615.22;;;15.61;100.00
16481;BME280;44634;54.110;12.138;2023-04-15T07:43:59;100623.19;;;15.69;100.00
16481;BME280;44634;54.110;12.138;2023-04-15T07:46:28;100664.03;;;16.00;100.00
16481;BME280;44634;54.110;12.138;2023-04-15T07:48:56;100688.50;;;16.12;100.00
16481;BME280;44634;54.110;12.138;2023-04-15T07:51:24;100696.56;;;15.96;100.00
16481;BME280;44634;54.110;12.138;2023-04-15T07:53:51;100698.03;;;16.38;100.00
16481;BME280;44634;54.110;12.138;2023-04-15T07:56:20;100708.88;;;16.67;100.00
16481;BME280;44634;54.110;12.138;2023-04-15T07:58:48;100742.81;;;16.81;100.00
16481;BME280;44634;54.110;12.138;2023-04-15T08:01:15;100739.78;;;17.07;100.00
16481;BME280;44634;54.110;12.138;2023-04-15T08:03:44;100780.97;;;16.90;100.00
16481;BME280;44634;54.110;12.138;2023-04-15T08:06:13;100792.47;;;16.59;100.00
16481;BME280;44634;54.110;12.138;2023-04-15T08:08:41;100810.09;;;16.77;100.00
16481;BME280;44634;54.110;12.138;2023-04-15T08:11:09;100802.97;;;16.61;100.00
16481;BME280;44634;54.110;12.138;2023-04-15T08:13:37;100808.81;;;16.95;100.00
16481;BME280;44634;54.110;12.138;2023-04-15T08:16:14;100795.78;;;16.70;100.00
16481;BME280;44634;54.110;12.138;2023-04-15T08:18:43;100799.59;;;16.75;100.00
16481;BME280;44634;54.110;12.138;2023-04-15T08:21:12;100811.91;;;17.07;100.00
16481;BME280;44634;54.110;12.138;2023-04-15T08:23:40;100808.97;;;16.63;100.00
16481;BME280;44634;54.110;12.138;2023-04-15T08:26:08;100827.53;;;16.56;100.00
16481;BME280;44634;54.110;12.138;2023-04-15T08:28:37;100857.63;;;17.35;100.00
16481;BME280;44634;54.110;12.138;2023-04-15T08:31:08;100862.41;;;16.94;100.00
16481;BME280;44634;54.110;12.138;2023-04-15T08:33:36;100854.00;;;16.19;100.00
16481;BME280;44634;54.110;12.138;2023-04-15T08:36:04;100862.56;;;16.06;100.00
16481;BME280;44634;54.110;12.138;2023-04-15T08:38:34;100845.38;;;16.56;100.00
16481;BME280;44634;54.110;12.138;2023-04-15T08:41:11;100850.28;;;16.83;100.00
16481;BME280;44634;54.110;12.138;2023-04-15T08:43:51;100864.84;;;17.04;100.00
16481;BME280;44634;54.110;12.138;2023-04-15T08:46:20;100866.59;;;16.49;100.00
16481;BME280;44634;54.110;12.138;2023-04-15T08:48:49;100880.00;;;17.11;100.00
16481;BME280;44634;54.110;12.138;2023-04-15T08:51:17;100885.28;;;16.49;100.00
16481;BME280;44634;54.110;12.138;2023-04-15T08:53:47;100887.88;;;17.05;100.00
16481;BME280;44634;54.110;12.138;2023-04-15T08:56:17;100879.13;;;16.88;100.00
16481;BME280;44634;54.110;12.138;2023-04-15T08:58:46;100895.97;;;16.88;100.00
16481;BME280;44634;54.110;12.138;2023-04-15T09:01:14;100905.34;;;16.92;100.00
16481;BME280;44634;54.110;12.138;2023-04-15T09:03:42;100919.56;;;16.77;100.00
16481;BME280;44634;54.110;12.138;2023-04-15T09:06:11;100913.00;;;17.72;100.00
16481;BME280;44634;54.110;12.138;2023-04-15T09:08:39;100917.34;;;17.19;100.00
16481;BME280;44634;54.110;12.138;2023-04-15T09:11:09;100901.75;;;18.14;100.00
16481;BME280;44634;54.110;12.138;2023-04-15T09:13:37;100923.66;;;17.80;100.00
16481;BME280;44634;54.110;12.138;2023-04-15T09:16:06;100927.94;;;17.36;100.00
16481;BME280;44634;54.110;12.138;2023-04-15T09:18:35;100929.94;;;16.80;100.00
16481;BME280;44634;54.110;12.138;2023-04-15T09:21:04;100920.28;;;16.71;100.00
16481;BME280;44634;54.110;12.138;2023-04-15T09:23:34;100912.44;;;17.08;100.00
16481;BME280;44634;54.110;12.138;2023-04-15T09:26:03;100916.75;;;17.09;100.00
16481;BME280;44634;54.110;12.138;2023-04-15T09:28:33;100922.75;;;16.72;100.00
16481;BME280;44634;54.110;12.138;2023-04-15T09:31:07;100936.94;;;17.43;100.00
16481;BME280;44634;54.110;12.138;2023-04-15T09:33:53;100937.06;;;16.87;100.00
16481;BME280;44634;54.110;12.138;2023-04-15T09:36:22;100936.16;;;17.03;100.00
16481;BME280;44634;54.110;12.138;2023-04-15T09:38:54;100923.84;;;16.39;100.00
16481;BME280;44634;54.110;12.138;2023-04-15T09:41:24;100929.09;;;16.79;100.00
16481;BME280;44634;54.110;12.138;2023-04-15T09:43:54;100921.56;;;16.83;100.00
16481;BME280;44634;54.110;12.138;2023-04-15T09:46:39;100925.91;;;16.84;100.00
16481;BME280;44634;54.110;12.138;2023-04-15T09:49:08;100921.09;;;17.33;100.00
16481;BME280;44634;54.110;12.138;2023-04-15T09:51:36;100912.25;;;17.10;100.00
16481;BME280;44634;54.110;12.138;2023-04-15T09:54:04;100911.38;;;17.40;100.00
16481;BME280;44634;54.110;12.138;2023-04-15T09:56:34;100905.66;;;16.34;100.00
16481;BME280;44634;54.110;12.138;2023-04-15T09:59:05;100908.81;;;16.46;100.00
16481;BME280;44634;54.110;12.138;2023-04-15T10:01:33;100929.28;;;16.61;100.00
16481;BME280;44634;54.110;12.138;2023-04-15T10:04:03;100923.81;;;17.79;100.00
16481;BME280;44634;54.110;12.138;2023-04-15T10:06:32;100931.81;;;17.33;100.00
16481;BME280;44634;54.110;12.138;2023-04-15T10:09:01;100941.19;;;16.98;100.00
16481;BME280;44634;54.110;12.138;2023-04-15T10:11:29;100943.91;;;17.75;100.00
16481;BME280;44634;54.110;12.138;2023-04-15T10:13:58;100981.97;;;19.55;100.00
16481;BME280;44634;54.110;12.138;2023-04-15T10:16:28;100984.34;;;19.14;100.00
16481;BME280;44634;54.110;12.138;2023-04-15T10:19:00;100989.03;;;20.83;100.00
16481;BME280;44634;54.110;12.138;2023-04-15T10:21:29;101002.59;;;19.76;100.00
16481;BME280;44634;54.110;12.138;2023-04-15T10:23:57;100985.81;;;19.89;100.00
16481;BME280;44634;54.110;12.138;2023-04-15T10:26:27;100981.63;;;20.29;100.00
16481;BME280;44634;54.110;12.138;2023-04-15T10:28:55;100991.50;;;19.79;100.00
16481;BME280;44634;54.110;12.138;2023-04-15T10:31:25;100993.22;;;19.87;100.00
16481;BME280;44634;54.110;12.138;2023-04-15T10:33:55;101001.84;;;19.61;100.00
16481;BME280;44634;54.110;12.138;2023-04-15T10:36:24;100997.53;;;18.57;100.00
16481;BME280;44634;54.110;12.138;2023-04-15T10:38:51;100979.84;;;18.18;100.00
16481;BME280;44634;54.110;12.138;2023-04-15T10:41:21;100985.41;;;18.84;100.00
16481;BME280;44634;54.110;12.138;2023-04-15T10:43:50;100987.72;;;18.34;100.00
16481;BME280;44634;54.110;12.138;2023-04-15T10:46:21;100999.91;;;18.37;100.00
16481;BME280;44634;54.110;12.138;2023-04-15T10:48:51;100997.59;;;18.34;100.00
16481;BME280;44634;54.110;12.138;2023-04-15T10:51:29;101002.78;;;18.50;100.00
16481;BME280;44634;54.110;12.138;2023-04-15T10:53:58;101003.19;;;18.09;100.00
16481;BME280;44634;54.110;12.138;2023-04-15T10:56:27;101005.88;;;18.77;100.00
16481;BME280;44634;54.110;12.138;2023-04-15T10:58:58;100995.19;;;18.01;100.00
16481;BME280;44634;54.110;12.138;2023-04-15T11:01:50;101012.19;;;18.46;100.00
16481;BME280;44634;54.110;12.138;2023-04-15T11:04:55;101007.16;;;18.13;100.00
16481;BME280;44634;54.110;12.138;2023-04-15T11:07:35;101009.47;;;17.71;100.00
16481;BME280;44634;54.110;12.138;2023-04-15T11:10:05;101002.72;;;17.52;100.00
16481;BME280;44634;54.110;12.138;2023-04-15T11:12:53;101021.16;;;17.00;100.00
16481;BME280;44634;54.110;12.138;2023-04-15T11:15:27;101014.69;;;18.48;100.00
16481;BME280;44634;54.110;12.138;2023-04-15T11:17:56;101015.47;;;17.73;100.00
16481;BME280;44634;54.110;12.138;2023-04-15T11:20:24;101023.34;;;16.96;100.00
16481;BME280;44634;54.110;12.138;2023-04-15T11:22:53;101006.38;;;17.82;100.00
16481;BME280;44634;54.110;12.138;2023-04-15T11:25:40;101003.91;;;17.10;100.00
16481;BME280;44634;54.110;12.138;2023-04-15T11:28:08;101009.03;;;17.20;100.00
16481;BME280;44634;54.110;12.138;2023-04-15T11:30:36;101013.13;;;17.39;100.00
16481;BME280;44634;54.110;12.138;2023-04-15T11:33:05;101025.28;;;17.10;100.00
16481;BME280;44634;54.110;12.138;2023-04-15T11:35:34;101027.59;;;17.21;100.00
16481;BME280;44634;54.110;12.138;2023-04-15T11:38:04;101023.03;;;17.61;100.00
16481;BME280;44634;54.110;12.138;2023-04-15T11:40:34;101028.66;;;17.35;100.00
16481;BME280;44634;54.110;12.138;2023-04-15T11:43:04;101025.22;;;18.11;100.00
16481;BME280;44634;54.110;12.138;2023-04-15T11:45:33;101045.53;;;17.75;100.00
16481;BME280;44634;54.110;12.138;2023-04-15T11:48:06;101026.13;;;17.81;100.00
16481;BME280;44634;54.110;12.138;2023-04-15T11:50:35;101034.53;;;17.39;100.00
16481;BME280;44634;54.110;12.138;2023-04-15T11:53:05;101028.91;;;17.57;100.00
16481;BME280;44634;54.110;12.138;2023-04-15T11:55:41;101020.13;;;18.92;100.00
16481;BME280;44634;54.110;12.138;2023-04-15T11:58:11;101040.66;;;18.85;100.00
16481;BME280;44634;54.110;12.138;2023-04-15T12:00:45;101045.53;;;18.43;100.00
16481;BME280;44634;54.110;12.138;2023-04-15T12:03:17;101042.13;;;18.12;100.00
16481;BME280;44634;54.110;12.138;2023-04-15T12:06:12;101037.94;;;18.70;100.00
16481;BME280;44634;54.110;12.138;2023-04-15T12:08:59;101039.63;;;18.48;100.00
16481;BME280;44634;54.110;12.138;2023-04-15T12:11:38;101048.53;;;18.26;100.00
16481;BME280;44634;54.110;12.138;2023-04-15T12:14:11;101068.94;;;18.04;100.00
16481;BME280;44634;54.110;12.138;2023-04-15T12:16:41;101069.66;;;18.81;100.00
16481;BME280;44634;54.110;12.138;2023-04-15T12:19:17;101073.63;;;18.85;100.00
16481;BME280;44634;54.110;12.138;2023-04-15T12:21:49;101070.50;;;19.26;100.00
16481;BME280;44634;54.110;12.138;2023-04-15T12:24:20;101081.22;;;18.59;100.00
16481;BME280;44634;54.110;12.138;2023-04-15T12:26:50;101085.41;;;17.53;100.00
16481;BME280;44634;54.110;12.138;2023-04-15T12:29:19;101077.13;;;18.86;100.00
16481;BME280;44634;54.110;12.138;2023-04-15T12:31:52;101082.34;;;18.64;100.00
16481;BME280;44634;54.110;12.138;2023-04-15T12:34:26;101083.97;;;19.18;100.00
16481;BME280;44634;54.110;12.138;2023-04-15T12:36:55;101092.94;;;18.35;100.00
16481;BME280;44634;54.110;12.138;2023-04-15T12:39:25;101091.34;;;17.64;100.00
16481;BME280;44634;54.110;12.138;2023-04-15T12:41:56;101103.72;;;17.73;100.00